createdAt,value
2023-02-11T00:00:55.821Z,62.56
2023-02-11T00:01:55.855Z,65.09
2023-02-11T00:02:55.945Z,62.30
2023-02-11T00:03:55.901Z,64.42
2023-02-11T00:04:55.875Z,64.24
2023-02-11T00:05:55.876Z,62.70
2023-02-11T00:06:55.878Z,64.07
2023-02-11T00:07:55.884Z,63.72
2023-02-11T00:08:55.891Z,63.76
2023-02-11T00:09:55.884Z,62.79
2023-02-11T00:10:55.889Z,62.74
2023-02-11T00:11:55.967Z,63.23
2023-02-11T00:12:55.931Z,64.02
2023-02-11T00:13:55.930Z,63.50
2023-02-11T00:14:55.956Z,62.91
2023-02-11T00:15:55.940Z,65.01
2023-02-11T00:16:56.008Z,65.76
2023-02-11T00:17:55.973Z,63.73
2023-02-11T00:18:55.997Z,62.81
2023-02-11T00:19:55.992Z,65.39
2023-02-11T00:20:56.010Z,62.28
2023-02-11T00:21:56.012Z,62.91
2023-02-11T00:22:56.027Z,63.94
2023-02-11T00:23:56.014Z,63.78
2023-02-11T00:24:56.036Z,64.24
2023-02-11T00:25:56.026Z,63.52
2023-02-11T00:26:56.039Z,62.21
2023-02-11T00:27:56.065Z,64.35
2023-02-11T00:28:56.056Z,63.63
2023-02-11T00:29:56.064Z,62.73
2023-02-11T00:30:56.237Z,62.71
2023-02-11T00:31:56.183Z,64.39
2023-02-11T00:32:56.098Z,61.58
2023-02-11T00:33:56.114Z,62.17
2023-02-11T00:34:56.119Z,64.16
2023-02-11T00:35:56.179Z,60.25
2023-02-11T00:36:56.145Z,62.01
2023-02-11T00:37:56.151Z,62.41
2023-02-11T00:38:56.161Z,62.66
2023-02-11T00:50:56.301Z,61.54
2023-02-11T00:55:56.351Z,60.74
2023-02-11T00:56:56.355Z,60.28
2023-02-11T00:57:56.372Z,59.78
2023-02-11T00:58:56.387Z,61.75
2023-02-11T00:59:56.381Z,60.91
2023-02-11T01:00:56.469Z,60.85
2023-02-11T01:01:56.410Z,60.93
2023-02-11T01:02:56.413Z,61.16
2023-02-11T01:03:56.430Z,60.22
2023-02-11T01:04:56.494Z,60.12
2023-02-11T01:05:56.456Z,58.23
2023-02-11T01:06:56.478Z,61.42
2023-02-11T01:07:56.496Z,59.90
2023-02-11T01:08:56.510Z,60.48
2023-02-11T01:09:56.531Z,59.55
2023-02-11T01:10:56.538Z,61.24
2023-02-11T01:11:56.558Z,60.63
2023-02-11T01:12:56.567Z,60.17
2023-02-11T01:13:56.679Z,60.59
2023-02-11T01:14:56.611Z,59.81
2023-02-11T01:15:56.664Z,60.85
2023-02-11T01:16:56.627Z,61.77
2023-02-11T01:17:56.643Z,62.11
2023-02-11T01:18:56.653Z,60.02
2023-02-11T01:19:56.670Z,61.24
2023-02-11T01:20:56.689Z,62.06
2023-02-11T01:21:56.695Z,61.16
2023-02-11T01:22:56.718Z,61.20
2023-02-11T01:23:56.724Z,59.82
2023-02-11T01:24:56.724Z,60.25
2023-02-11T01:25:57.460Z,59.25
2023-02-11T01:26:57.455Z,58.70
2023-02-11T01:27:56.805Z,59.44
2023-02-11T01:28:56.761Z,59.02
2023-02-11T01:29:56.761Z,60.06
2023-02-11T01:30:56.873Z,59.22
2023-02-11T01:31:56.808Z,59.19
2023-02-11T01:32:56.786Z,60.27
2023-02-11T01:33:56.797Z,58.39
2023-02-11T01:34:56.805Z,61.30
2023-02-11T01:35:56.826Z,58.60
2023-02-11T01:36:56.828Z,57.98
2023-02-11T01:37:56.837Z,57.70
2023-02-11T01:38:56.852Z,58.54
2023-02-11T01:39:56.872Z,59.26
2023-02-11T01:40:56.891Z,57.43
2023-02-11T01:41:56.895Z,57.38
2023-02-11T01:42:56.910Z,59.04
2023-02-11T01:43:56.980Z,59.28
2023-02-11T01:44:56.921Z,59.25
2023-02-11T01:45:56.926Z,58.00
2023-02-11T01:46:56.998Z,57.37
2023-02-11T01:47:56.951Z,58.49
2023-02-11T01:48:57.000Z,56.42
2023-02-11T01:49:56.971Z,59.12
2023-02-11T01:50:56.991Z,58.38
2023-02-11T01:51:57.024Z,58.75
2023-02-11T01:52:57.012Z,58.65
2023-02-11T01:53:57.058Z,59.15
2023-02-11T01:54:57.065Z,57.34
2023-02-11T01:55:57.069Z,57.70
2023-02-11T01:56:57.092Z,56.08
2023-02-11T01:57:57.112Z,57.42
2023-02-11T01:58:57.126Z,58.25
2023-02-11T01:59:57.128Z,57.44
2023-02-11T02:00:57.155Z,58.01
2023-02-11T02:01:57.284Z,55.44
2023-02-11T02:56:58.384Z,56.06
2023-02-11T02:57:58.443Z,54.57
2023-02-11T02:58:58.444Z,52.54
2023-02-11T02:59:58.510Z,54.42
2023-02-11T03:01:58.539Z,55.09
2023-02-11T03:02:58.530Z,54.77
2023-02-11T03:03:58.669Z,54.18
2023-02-11T03:04:58.585Z,52.84
2023-02-11T03:05:58.616Z,53.95
2023-02-11T03:06:58.633Z,52.28
2023-02-11T03:07:58.664Z,53.34
2023-02-11T03:08:58.675Z,51.47
2023-02-11T03:09:58.719Z,51.47
2023-02-11T03:10:58.740Z,54.49
2023-02-11T03:11:58.775Z,51.44
2023-02-11T03:12:58.805Z,53.12
2023-02-11T03:13:58.816Z,52.77
2023-02-11T03:14:58.915Z,53.00
2023-02-11T03:15:58.935Z,53.48
2023-02-11T03:16:58.995Z,53.22
2023-02-11T03:17:58.923Z,52.10
2023-02-11T03:18:58.949Z,54.65
2023-02-11T03:19:58.993Z,53.05
2023-02-11T03:20:59.015Z,52.50
2023-02-11T03:21:59.040Z,51.08
2023-02-11T03:22:59.062Z,49.71
2023-02-11T03:23:59.081Z,52.11
2023-02-11T03:24:59.100Z,52.63
2023-02-11T03:25:59.144Z,54.94
2023-02-11T03:27:59.171Z,52.50
2023-02-11T03:28:59.208Z,51.71
2023-02-11T05:36:03.754Z,43.94
2023-02-11T06:08:05.152Z,40.74
2023-02-11T06:09:05.193Z,40.35
2023-02-11T06:10:05.246Z,41.25
2023-02-11T06:11:05.266Z,41.62
2023-02-11T06:12:05.392Z,40.69
2023-02-11T06:13:05.365Z,41.56
2023-02-11T06:14:05.414Z,41.07
2023-02-11T06:15:05.465Z,43.26
2023-02-11T06:16:05.538Z,42.27
2023-02-11T06:17:05.542Z,42.02
2023-02-11T06:18:05.595Z,39.15
2023-02-11T06:19:05.632Z,37.79
2023-02-11T06:20:05.672Z,42.33
2023-02-11T06:21:05.792Z,43.10
2023-02-11T06:22:05.764Z,41.12
2023-02-11T06:23:05.818Z,39.84
2023-02-11T06:24:05.863Z,40.96
2023-02-11T06:25:05.906Z,40.84
2023-02-11T06:26:05.958Z,39.89
2023-02-11T06:27:05.991Z,41.55
2023-02-11T06:28:06.116Z,39.85
2023-02-11T06:29:06.082Z,40.83
2023-02-11T06:30:06.133Z,39.24
2023-02-11T06:31:06.324Z,40.63
2023-02-11T06:32:06.266Z,39.97
2023-02-11T06:33:06.264Z,41.69
2023-02-11T06:34:06.287Z,41.07
2023-02-11T06:35:06.320Z,40.31
2023-02-11T06:36:06.376Z,40.95
2023-02-11T06:37:06.424Z,38.89
2023-02-11T06:38:06.527Z,39.19
2023-02-11T06:39:06.508Z,38.81
2023-02-11T09:20:15.209Z,32.74
2023-02-11T09:21:15.262Z,35.80
2023-02-11T09:22:15.401Z,34.63
2023-02-11T09:23:18.232Z,35.12
2023-02-11T09:24:15.378Z,36.97
2023-02-11T09:25:15.383Z,36.81
2023-02-11T09:26:15.467Z,34.02
2023-02-11T09:27:15.377Z,35.86
2023-02-11T09:28:15.412Z,34.54
2023-02-11T09:29:15.375Z,33.98
2023-02-11T09:30:15.385Z,34.33
2023-02-11T09:31:15.533Z,33.14
2023-02-11T09:32:15.499Z,33.94
2023-02-11T09:33:15.356Z,34.57
2023-02-11T09:34:15.369Z,36.92
2023-02-11T09:35:15.376Z,33.73
2023-02-11T09:36:15.479Z,38.26
2023-02-11T09:37:15.373Z,37.98
2023-02-11T09:38:16.072Z,36.11
2023-02-11T09:39:15.385Z,38.90
2023-02-11T09:40:15.405Z,34.64
2023-02-11T09:41:15.411Z,34.34
2023-02-11T09:42:15.414Z,38.79
2023-02-11T09:43:15.416Z,32.48
2023-02-11T09:44:15.419Z,35.10
2023-02-11T09:45:15.420Z,34.19
2023-02-11T09:46:15.526Z,35.98
2023-02-11T09:47:15.437Z,35.03
2023-02-11T09:48:15.437Z,33.10
2023-02-11T09:49:15.442Z,37.13
2023-02-11T09:50:15.446Z,34.64
2023-02-11T09:51:15.462Z,35.13
2023-02-11T09:52:15.467Z,31.57
2023-02-11T09:53:15.464Z,35.31
2023-02-11T09:54:15.468Z,36.29
2023-02-11T09:55:15.476Z,35.32
2023-02-11T09:56:15.494Z,34.04
2023-02-11T09:57:27.913Z,36.68
2023-02-11T09:58:16.493Z,36.90
2023-02-11T09:59:15.500Z,36.50
2023-02-11T10:00:15.553Z,34.24
2023-02-11T10:01:15.503Z,34.00
2023-02-11T10:02:15.492Z,33.23
2023-02-11T10:03:15.488Z,33.31
2023-02-11T10:04:15.537Z,34.73
2023-02-11T10:05:15.499Z,35.85
2023-02-11T10:06:15.507Z,34.20
2023-02-11T10:07:15.597Z,33.56
2023-02-11T10:08:17.050Z,33.72
2023-02-11T10:09:15.606Z,34.17
2023-02-11T10:10:15.661Z,32.95
2023-02-11T10:11:30.686Z,31.53
2023-02-11T10:12:16.735Z,31.85
2023-02-11T10:13:15.722Z,32.44
2023-02-11T10:14:15.727Z,32.32
2023-02-11T10:15:15.725Z,34.81
2023-02-11T10:16:15.757Z,35.92
2023-02-11T10:17:15.742Z,33.71
2023-02-11T10:18:15.739Z,34.62
2023-02-11T10:19:15.739Z,36.60
2023-02-11T10:20:17.061Z,34.09
2023-02-11T10:21:15.737Z,33.28
2023-02-11T10:22:15.758Z,34.74
2023-02-11T10:23:15.742Z,33.38
2023-02-11T10:24:15.749Z,32.41
2023-02-11T10:25:15.749Z,34.10
2023-02-11T10:26:15.750Z,34.35
2023-02-11T10:27:15.757Z,32.55
2023-02-11T10:28:15.867Z,33.19
2023-02-11T10:29:15.816Z,35.49
2023-02-11T10:30:15.822Z,33.90
2023-02-11T10:31:16.676Z,32.56
2023-02-11T10:32:15.757Z,33.55
2023-02-11T10:33:15.755Z,33.17
2023-02-11T10:34:15.757Z,36.49
2023-02-11T10:35:15.760Z,35.46
2023-02-11T10:36:15.771Z,33.09
2023-02-11T10:37:15.776Z,30.13
2023-02-11T10:38:15.768Z,32.95
2023-02-11T10:39:15.773Z,33.57
2023-02-11T10:40:15.842Z,33.84
2023-02-11T10:41:15.906Z,31.06
2023-02-11T10:42:16.043Z,36.72
2023-02-11T10:43:16.059Z,36.22
2023-02-11T10:44:16.096Z,36.02
2023-02-11T10:45:16.148Z,32.07
2023-02-11T10:46:16.278Z,35.71
2023-02-11T10:47:16.287Z,34.20
2023-02-11T10:48:17.099Z,32.44
2023-02-11T10:49:16.416Z,34.77
2023-02-11T10:50:16.479Z,33.06
2023-02-11T10:51:16.552Z,34.34
2023-02-11T10:52:16.608Z,36.33
2023-02-11T10:53:16.674Z,30.23
2023-02-11T10:54:16.742Z,35.24
2023-02-11T10:55:16.800Z,35.06
2023-02-11T10:56:16.917Z,36.55
2023-02-11T10:57:16.920Z,33.12
2023-02-11T10:58:16.977Z,34.95
2023-02-11T10:59:19.756Z,37.22
2023-02-11T11:00:17.046Z,37.24
2023-02-11T11:01:24.259Z,36.60
2023-02-11T11:02:18.078Z,37.54
2023-02-11T11:03:17.055Z,37.74
2023-02-11T11:04:17.072Z,36.95
2023-02-11T11:05:17.086Z,36.74
2023-02-11T11:06:17.087Z,36.02
2023-02-11T11:07:17.090Z,37.08
2023-02-11T11:08:17.096Z,36.28
2023-02-11T11:09:17.144Z,36.99
2023-02-11T11:10:17.137Z,36.29
2023-02-11T11:11:17.107Z,35.16
2023-02-11T11:12:17.123Z,35.06
2023-02-11T11:13:17.137Z,35.07
2023-02-11T11:14:18.100Z,33.77
2023-02-11T11:15:17.227Z,31.80
2023-02-11T11:16:17.358Z,33.87
2023-02-11T11:17:17.345Z,33.70
2023-02-11T11:18:23.242Z,34.28
2023-02-11T11:19:18.400Z,34.52
2023-02-11T11:20:17.530Z,35.02
2023-02-11T11:21:18.102Z,35.34
2023-02-11T11:22:17.412Z,34.26
2023-02-11T11:23:17.422Z,35.27
2023-02-11T11:24:17.438Z,30.91
2023-02-11T11:25:17.437Z,35.78
2023-02-11T11:26:17.440Z,34.27
2023-02-11T11:27:17.451Z,33.63
2023-02-11T11:28:17.497Z,35.15
2023-02-11T11:29:17.456Z,35.62
2023-02-11T11:30:17.465Z,33.45
2023-02-11T11:31:17.668Z,31.52
2023-02-11T11:32:19.562Z,34.18
2023-02-11T11:33:17.592Z,33.23
2023-02-11T11:34:17.604Z,37.78
2023-02-11T11:35:18.109Z,31.61
2023-02-11T11:36:17.600Z,35.92
2023-02-11T11:37:17.602Z,33.05
2023-02-11T11:38:17.611Z,34.65
2023-02-11T11:39:17.615Z,33.71
2023-02-11T11:40:17.615Z,34.00
2023-02-11T11:41:17.616Z,35.25
2023-02-11T11:42:17.626Z,32.90
2023-02-11T11:43:17.617Z,34.48
2023-02-11T11:44:17.609Z,34.50
2023-02-11T11:45:17.613Z,31.08
2023-02-11T11:46:17.698Z,33.04
2023-02-11T11:47:17.613Z,34.83
2023-02-11T11:48:17.620Z,35.99
2023-02-11T11:49:17.642Z,34.45
2023-02-11T11:50:20.141Z,36.28
2023-02-11T11:51:17.625Z,36.40
2023-02-11T11:52:17.639Z,34.66
2023-02-11T11:53:17.648Z,34.04
2023-02-11T11:54:17.712Z,36.38
2023-02-11T11:55:17.648Z,32.84
2023-02-11T11:56:17.656Z,34.21
2023-02-11T11:57:17.656Z,37.48
2023-02-11T11:58:17.667Z,34.06
2023-02-11T11:59:17.661Z,31.67
2023-02-11T12:00:17.658Z,32.61
2023-02-11T12:01:17.661Z,32.42
2023-02-11T12:02:17.709Z,34.20
2023-02-11T12:03:17.782Z,31.17
2023-02-11T12:04:17.684Z,32.96
2023-02-11T12:05:17.679Z,34.78
2023-02-11T12:06:17.706Z,31.95
2023-02-11T12:07:17.694Z,34.30
2023-02-11T12:08:17.704Z,36.58
2023-02-11T12:09:17.699Z,37.34
2023-02-11T12:10:17.690Z,34.17
2023-02-11T12:11:17.702Z,33.11
2023-02-11T12:12:17.703Z,32.42
2023-02-11T12:13:17.725Z,30.88
2023-02-11T12:14:17.706Z,31.33
2023-02-11T12:15:17.718Z,32.71
2023-02-11T12:16:17.745Z,32.96
2023-02-11T12:17:17.860Z,31.19
2023-02-11T12:18:17.749Z,36.11
2023-02-11T12:19:17.740Z,33.58
2023-02-11T12:20:17.738Z,32.25
2023-02-11T12:21:17.753Z,33.01
2023-02-11T12:22:17.752Z,32.58
2023-02-11T12:23:17.767Z,35.37
2023-02-11T12:24:17.757Z,29.45
2023-02-11T12:25:17.753Z,35.96
2023-02-11T12:26:17.762Z,30.59
2023-02-11T12:27:17.766Z,35.68
2023-02-11T12:28:17.808Z,36.30
2023-02-11T12:29:17.861Z,38.10
2023-02-11T12:30:17.907Z,36.03
2023-02-11T12:31:18.031Z,35.11
2023-02-11T12:32:18.031Z,33.58
2023-02-11T12:33:18.103Z,34.50
2023-02-11T12:34:18.165Z,34.47
2023-02-11T12:35:18.235Z,34.53
2023-02-11T12:36:18.277Z,32.28
2023-02-11T12:37:19.121Z,33.14
2023-02-11T12:38:18.404Z,33.18
2023-02-11T12:39:18.556Z,34.02
2023-02-11T12:40:18.532Z,33.95
2023-02-11T12:41:18.591Z,37.13
2023-02-11T12:42:18.690Z,33.61
2023-02-11T12:43:18.762Z,35.58
2023-02-11T12:44:18.778Z,34.56
2023-02-11T12:45:18.841Z,33.09
2023-02-11T12:46:18.921Z,32.88
2023-02-11T12:47:19.022Z,35.12
2023-02-11T12:48:19.022Z,34.76
2023-02-11T12:49:19.138Z,33.55
2023-02-11T12:50:19.119Z,37.81
2023-02-11T12:51:19.163Z,35.89
2023-02-11T12:52:19.221Z,34.73
2023-02-11T12:53:19.337Z,34.66
2023-02-11T12:54:19.341Z,31.58
2023-02-11T12:55:19.420Z,37.06
2023-02-11T12:56:19.461Z,35.71
2023-02-11T12:57:19.523Z,33.30
2023-02-11T12:58:19.584Z,32.44
2023-02-11T12:59:19.659Z,34.32
2023-02-11T13:00:19.728Z,33.47
2023-02-11T13:01:19.816Z,36.42
2023-02-11T13:02:20.682Z,33.90
2023-02-11T13:03:19.902Z,34.82
2023-02-11T13:04:19.981Z,36.66
2023-02-11T13:05:20.048Z,35.57
2023-02-11T13:06:20.116Z,33.46
2023-02-11T13:07:20.186Z,36.01
2023-02-11T13:08:20.253Z,32.38
2023-02-11T13:09:20.305Z,31.47
2023-02-11T13:10:20.388Z,35.79
2023-02-11T13:11:20.440Z,34.94
2023-02-11T13:12:20.510Z,32.77
2023-02-11T15:12:25.673Z,36.91
2023-02-11T15:18:25.262Z,32.65
2023-02-11T15:19:25.768Z,33.43
2023-02-11T15:20:25.324Z,36.86
2023-02-11T15:21:25.366Z,36.12
2023-02-11T15:22:25.416Z,35.36
2023-02-11T15:23:25.464Z,36.72
2023-02-11T15:24:25.546Z,33.69
2023-02-11T15:25:25.570Z,34.68
2023-02-11T15:26:25.623Z,34.41
2023-02-11T15:27:25.683Z,34.89
2023-02-11T15:28:25.822Z,32.18
2023-02-11T15:29:25.781Z,37.19
2023-02-11T15:30:25.853Z,33.52
2023-02-11T15:31:26.014Z,33.64
2023-02-11T15:32:26.084Z,31.71
2023-02-11T16:03:27.638Z,33.04
2023-02-11T16:04:27.757Z,34.36
2023-02-11T16:05:27.832Z,32.34
2023-02-11T16:06:27.794Z,34.77
2023-02-11T16:07:27.842Z,32.81
2023-02-11T16:08:27.892Z,33.63
2023-02-11T16:09:27.962Z,34.12
2023-02-11T16:10:28.003Z,35.45
2023-02-11T16:11:28.052Z,33.51
2023-02-11T16:12:28.091Z,33.48
2023-02-11T16:13:28.195Z,35.99
2023-02-11T16:14:28.192Z,33.31
2023-02-11T16:15:28.235Z,34.92
2023-02-11T16:16:28.325Z,35.78
2023-02-11T16:17:28.347Z,30.46
2023-02-11T16:18:37.247Z,33.26
2023-02-11T16:20:28.441Z,33.83
2023-02-11T16:21:28.348Z,33.81
2023-02-11T16:22:28.332Z,34.81
2023-02-11T16:23:28.337Z,32.83
2023-02-11T16:24:28.314Z,32.31
2023-02-11T16:25:28.371Z,35.68
2023-02-11T16:26:28.302Z,38.05
2023-02-11T16:27:28.350Z,31.56
2023-02-11T16:28:28.402Z,34.87
2023-02-11T16:29:28.369Z,35.21
2023-02-11T16:30:28.424Z,33.66
2023-02-11T16:31:29.240Z,32.18
2023-02-11T16:32:28.458Z,32.72
2023-02-11T16:33:28.496Z,32.10
2023-02-11T16:34:28.533Z,32.42
2023-02-11T16:35:28.579Z,33.26
2023-02-11T16:36:28.705Z,34.56
2023-02-11T16:37:28.692Z,33.04
2023-02-11T16:38:28.722Z,34.40
2023-02-11T16:39:28.757Z,35.35
2023-02-11T16:40:28.888Z,32.21
2023-02-11T16:41:28.830Z,34.27
2023-02-11T16:42:28.950Z,32.77
2023-02-11T16:43:28.933Z,34.52
2023-02-11T16:44:28.991Z,33.45
2023-02-11T16:45:29.050Z,33.28
2023-02-11T16:46:29.130Z,33.40
2023-02-11T16:47:29.147Z,31.65
2023-02-11T16:48:29.191Z,31.54
2023-02-11T16:49:29.244Z,32.68
2023-02-11T16:50:29.304Z,30.43
2023-02-11T16:51:29.348Z,32.20
2023-02-11T16:52:29.411Z,32.09
2023-02-11T16:53:29.455Z,32.40
2023-02-11T16:54:29.490Z,34.20
2023-02-11T16:55:29.554Z,32.62
2023-02-11T16:56:29.599Z,32.90
2023-02-11T16:57:30.414Z,32.21
2023-02-11T16:58:29.727Z,29.12
2023-02-11T16:59:29.710Z,32.61
2023-02-11T17:00:29.830Z,32.59
2023-02-11T17:01:29.822Z,32.67
2023-02-11T17:02:29.825Z,28.65
2023-02-11T17:03:30.346Z,36.33
2023-02-11T17:04:29.987Z,33.59
2023-02-11T17:05:29.965Z,34.38
2023-02-11T17:06:30.087Z,29.99
2023-02-11T17:07:30.685Z,31.93
2023-02-11T17:08:30.121Z,33.18
2023-02-11T17:09:31.196Z,33.24
2023-02-11T17:10:30.188Z,29.25
2023-02-11T17:11:30.246Z,30.27
2023-02-11T17:12:30.282Z,30.64
2023-02-11T17:13:30.334Z,31.98
2023-02-11T17:14:30.380Z,31.49
2023-02-11T17:15:30.424Z,30.77
2023-02-11T17:16:30.547Z,27.76
2023-02-11T17:17:30.517Z,32.18
2023-02-11T17:18:30.557Z,29.78
2023-02-11T17:19:30.609Z,31.91
2023-02-11T17:20:30.679Z,31.99
2023-02-11T17:21:30.712Z,31.47
2023-02-11T17:22:30.751Z,32.49
2023-02-11T17:23:30.796Z,35.23
2023-02-11T17:24:30.845Z,28.35
2023-02-11T17:25:30.889Z,31.75
2023-02-11T17:26:30.944Z,31.25
2023-02-11T17:27:30.992Z,33.12
2023-02-11T17:28:31.069Z,33.35
2023-02-11T17:29:31.081Z,31.25
2023-02-11T17:30:31.143Z,32.52
2023-02-11T17:32:31.235Z,32.11
2023-02-11T17:33:33.026Z,27.51
2023-02-11T17:34:31.279Z,34.84
2023-02-11T17:35:31.265Z,31.13
2023-02-11T17:36:31.263Z,31.64
2023-02-11T17:37:31.231Z,31.30
2023-02-11T17:38:31.280Z,30.64
2023-02-11T17:39:31.221Z,30.39
2023-02-11T17:40:31.203Z,30.96
2023-02-11T18:06:30.901Z,28.70
2023-02-11T18:07:30.955Z,31.93
2023-02-11T18:08:30.874Z,28.75
2023-02-11T18:09:30.866Z,27.96
2023-02-11T18:11:30.835Z,28.80
2023-02-11T18:12:30.812Z,27.41
2023-02-11T18:13:30.816Z,26.32
2023-02-11T18:14:30.793Z,28.38
2023-02-11T18:15:30.781Z,29.47
2023-02-11T18:16:30.847Z,32.42
2023-02-11T18:17:30.835Z,30.99
2023-02-11T18:18:30.871Z,26.83
2023-02-11T18:19:30.914Z,30.88
2023-02-11T18:20:30.948Z,29.53
2023-02-11T18:21:31.006Z,26.05
2023-02-11T18:22:31.031Z,29.47
2023-02-11T18:23:31.073Z,30.64
2023-02-11T18:24:31.132Z,26.25
2023-02-11T18:25:31.145Z,30.91
2023-02-11T18:26:31.192Z,28.21
2023-02-11T18:27:31.250Z,31.14
2023-02-11T18:28:31.307Z,30.61
2023-02-11T18:29:31.294Z,29.39
2023-02-11T18:30:31.445Z,28.99
2023-02-11T18:31:31.446Z,28.34
2023-02-11T18:32:31.423Z,27.69
2023-02-11T18:33:31.476Z,27.32
2023-02-11T18:34:31.485Z,27.62
2023-02-11T18:35:31.520Z,28.67
2023-02-11T18:36:31.566Z,29.61
2023-02-11T18:37:31.604Z,32.65
2023-02-11T18:38:31.654Z,29.47
2023-02-11T19:59:35.237Z,30.24
2023-02-11T20:17:35.185Z,28.65
2023-02-11T20:18:35.200Z,28.78
2023-02-11T20:19:35.237Z,28.22
2023-02-11T20:20:35.278Z,27.81
2023-02-11T20:21:35.316Z,27.51
2023-02-11T20:22:35.361Z,28.31
2023-02-11T20:23:35.371Z,28.35
2023-02-11T20:24:35.407Z,30.70
2023-02-11T20:25:35.441Z,27.68
2023-02-11T20:26:35.468Z,29.69
2023-02-11T20:27:35.510Z,27.92
2023-02-11T20:28:35.609Z,28.76
2023-02-11T20:29:35.624Z,28.53
2023-02-11T20:30:35.617Z,28.34
2023-02-11T20:31:35.829Z,28.02
2023-02-11T20:32:35.656Z,28.41
2023-02-11T20:33:35.690Z,27.83
2023-02-11T20:34:35.718Z,27.06
2023-02-11T20:35:35.848Z,26.88
2023-02-11T20:36:35.800Z,31.37
2023-02-11T20:37:35.828Z,27.74
2023-02-11T20:38:36.753Z,27.68
2023-02-11T20:39:35.892Z,26.90
2023-02-11T20:40:35.944Z,26.98
2023-02-11T20:41:35.956Z,25.84
2023-02-11T20:42:35.991Z,28.60
2023-02-11T20:43:37.927Z,27.89
2023-02-11T20:44:36.038Z,30.01
2023-02-11T20:45:36.155Z,28.40
2023-02-11T20:46:36.128Z,27.22
2023-02-11T20:47:36.123Z,26.88
2023-02-11T20:48:36.170Z,28.15
2023-02-11T20:49:36.194Z,27.95
2023-02-11T20:50:36.231Z,30.29
2023-02-11T20:51:36.276Z,28.88
2023-02-11T20:52:36.332Z,28.77
2023-02-11T20:53:36.333Z,31.00
2023-02-11T20:54:36.397Z,29.19
2023-02-11T20:55:36.395Z,30.57
2023-02-11T20:56:37.238Z,29.26
2023-02-11T20:57:36.437Z,30.20
2023-02-11T20:58:36.488Z,29.03
2023-02-11T20:59:36.483Z,30.39
2023-02-11T21:00:36.520Z,28.84
2023-02-11T21:01:37.343Z,30.08
2023-02-11T21:02:36.588Z,27.11
2023-02-11T21:03:36.649Z,28.03
2023-02-11T21:04:36.628Z,28.45
2023-02-11T21:05:36.665Z,28.14
2023-02-11T21:06:36.766Z,31.08
2023-02-11T21:07:39.063Z,32.21
2023-02-11T21:08:37.246Z,28.62
2023-02-11T21:09:36.786Z,31.39
2023-02-11T21:10:36.815Z,27.67
2023-02-11T21:11:36.847Z,27.57
2023-02-11T21:12:36.864Z,29.97
2023-02-11T21:13:36.910Z,29.12
2023-02-11T21:14:37.055Z,29.49
2023-02-11T21:15:36.991Z,28.27
2023-02-11T21:16:36.998Z,27.68
2023-02-11T21:17:37.014Z,30.01
2023-02-11T21:18:37.039Z,26.94
2023-02-11T21:19:37.153Z,31.13
2023-02-11T21:20:37.116Z,29.26
2023-02-11T21:21:37.154Z,27.14
2023-02-11T21:22:37.201Z,29.39
2023-02-11T21:23:37.228Z,31.35
2023-02-11T21:24:37.267Z,30.00
2023-02-11T21:25:37.286Z,27.16
2023-02-11T21:26:37.311Z,28.68
2023-02-11T21:27:37.337Z,27.87
2023-02-11T21:28:39.821Z,29.40
2023-02-11T21:29:49.294Z,31.57
2023-02-11T21:31:37.429Z,31.96
2023-02-11T21:32:37.334Z,31.90
2023-02-11T21:33:37.358Z,29.04
2023-02-11T21:34:37.310Z,27.75
2023-02-11T21:35:37.347Z,30.48
2023-02-11T21:36:37.297Z,30.35
2023-02-11T21:37:37.273Z,29.42
2023-02-11T21:38:37.265Z,31.30
2023-02-11T21:39:37.248Z,30.51
2023-02-11T21:40:37.269Z,30.15
2023-02-11T21:41:37.239Z,26.06
2023-02-11T21:42:37.210Z,28.71
2023-02-11T21:43:37.201Z,27.21
2023-02-11T21:44:37.195Z,29.94
2023-02-11T21:45:37.183Z,25.00
2023-02-11T21:46:37.280Z,28.35
2023-02-11T21:47:37.220Z,29.24
2023-02-11T21:48:37.258Z,30.26
2023-02-11T21:49:37.291Z,30.51
2023-02-11T22:01:37.607Z,28.48
2023-02-11T22:02:37.630Z,28.90
2023-02-11T22:03:37.664Z,26.75
2023-02-11T22:04:37.761Z,28.08
2023-02-11T22:05:37.729Z,29.42
2023-02-11T22:06:37.758Z,28.93
2023-02-11T22:07:37.780Z,28.51
2023-02-11T22:08:37.813Z,27.02
2023-02-11T22:09:37.829Z,29.05
2023-02-11T22:10:37.857Z,30.74
2023-02-11T22:11:37.890Z,28.20
2023-02-11T22:12:37.938Z,28.78
